sensor_id;sensor_type;location;lat;lon;timestamp;P1;durP1;ratioP1;P2;durP2;ratioP2
1336;SDS011;662;48.814;9.318;2022-08-19T00:01:51;15.50;;;14.10;;
1336;SDS011;662;48.814;9.318;2022-08-19T00:04:20;16.10;;;14.70;;
1336;SDS011;662;48.814;9.318;2022-08-19T00:06:48;14.90;;;13.40;;
1336;SDS011;662;48.814;9.318;2022-08-19T00:09:15;15.10;;;13.70;;
1336;SDS011;662;48.814;9.318;2022-08-19T00:11:42;14.70;;;13.30;;
1336;SDS011;662;48.814;9.318;2022-08-19T00:14:09;15.93;;;14.30;;
1336;SDS011;662;48.814;9.318;2022-08-19T00:16:37;15.90;;;14.33;;
1336;SDS011;662;48.814;9.318;2022-08-19T00:19:03;15.37;;;13.77;;
1336;SDS011;662;48.814;9.318;2022-08-19T00:21:29;15.07;;;13.70;;
1336;SDS011;662;48.814;9.318;2022-08-19T00:23:55;17.00;;;15.13;;
1336;SDS011;662;48.814;9.318;2022-08-19T00:26:25;15.60;;;14.20;;
1336;SDS011;662;48.814;9.318;2022-08-19T00:28:52;15.90;;;14.60;;
1336;SDS011;662;48.814;9.318;2022-08-19T00:31:18;15.77;;;14.27;;
1336;SDS011;662;48.814;9.318;2022-08-19T00:33:44;16.60;;;15.10;;
1336;SDS011;662;48.814;9.318;2022-08-19T00:36:10;15.87;;;14.40;;
1336;SDS011;662;48.814;9.318;2022-08-19T00:38:38;17.43;;;15.87;;
1336;SDS011;662;48.814;9.318;2022-08-19T00:41:08;16.43;;;14.93;;
1336;SDS011;662;48.814;9.318;2022-08-19T00:43:56;15.50;;;14.00;;
1336;SDS011;662;48.814;9.318;2022-08-19T00:46:22;16.37;;;14.77;;
1336;SDS011;662;48.814;9.318;2022-08-19T00:48:47;16.27;;;14.80;;
1336;SDS011;662;48.814;9.318;2022-08-19T00:51:13;15.30;;;13.90;;
1336;SDS011;662;48.814;9.318;2022-08-19T00:53:39;15.80;;;14.27;;
1336;SDS011;662;48.814;9.318;2022-08-19T00:56:05;16.83;;;15.33;;
1336;SDS011;662;48.814;9.318;2022-08-19T00:58:32;16.10;;;14.50;;
1336;SDS011;662;48.814;9.318;2022-08-19T01:01:00;16.97;;;15.27;;
1336;SDS011;662;48.814;9.318;2022-08-19T01:03:26;15.40;;;13.93;;
1336;SDS011;662;48.814;9.318;2022-08-19T01:05:52;15.93;;;14.43;;
1336;SDS011;662;48.814;9.318;2022-08-19T01:08:19;14.97;;;13.70;;
1336;SDS011;662;48.814;9.318;2022-08-19T01:10:47;16.10;;;14.60;;
1336;SDS011;662;48.814;9.318;2022-08-19T01:13:16;16.67;;;14.73;;
1336;SDS011;662;48.814;9.318;2022-08-19T01:15:46;17.47;;;15.77;;
1336;SDS011;662;48.814;9.318;2022-08-19T01:18:21;16.17;;;14.60;;
1336;SDS011;662;48.814;9.318;2022-08-19T01:20:48;15.60;;;14.10;;
1336;SDS011;662;48.814;9.318;2022-08-19T01:23:14;15.77;;;14.37;;
1336;SDS011;662;48.814;9.318;2022-08-19T01:25:42;17.43;;;15.73;;
1336;SDS011;662;48.814;9.318;2022-08-19T01:28:19;16.90;;;15.20;;
1336;SDS011;662;48.814;9.318;2022-08-19T01:30:51;16.53;;;14.90;;
1336;SDS011;662;48.814;9.318;2022-08-19T01:33:17;16.33;;;14.73;;
1336;SDS011;662;48.814;9.318;2022-08-19T01:35:44;16.03;;;14.53;;
1336;SDS011;662;48.814;9.318;2022-08-19T01:38:19;16.50;;;14.93;;
1336;SDS011;662;48.814;9.318;2022-08-19T01:40:47;15.87;;;14.37;;
1336;SDS011;662;48.814;9.318;2022-08-19T01:43:12;15.80;;;14.30;;
1336;SDS011;662;48.814;9.318;2022-08-19T01:45:38;16.03;;;14.50;;
1336;SDS011;662;48.814;9.318;2022-08-19T01:48:05;16.33;;;14.80;;
1336;SDS011;662;48.814;9.318;2022-08-19T01:50:33;16.60;;;15.00;;
1336;SDS011;662;48.814;9.318;2022-08-19T01:53:01;15.70;;;14.30;;
1336;SDS011;662;48.814;9.318;2022-08-19T01:55:28;17.23;;;15.63;;
1336;SDS011;662;48.814;9.318;2022-08-19T01:57:55;16.63;;;15.03;;
1336;SDS011;662;48.814;9.318;2022-08-19T02:00:25;16.97;;;15.47;;
1336;SDS011;662;48.814;9.318;2022-08-19T02:02:53;17.43;;;15.73;;
1336;SDS011;662;48.814;9.318;2022-08-19T02:05:19;16.50;;;14.90;;
1336;SDS011;662;48.814;9.318;2022-08-19T02:07:46;17.20;;;15.60;;
1336;SDS011;662;48.814;9.318;2022-08-19T02:10:14;16.10;;;14.67;;
1336;SDS011;662;48.814;9.318;2022-08-19T02:12:44;17.47;;;15.73;;
1336;SDS011;662;48.814;9.318;2022-08-19T02:15:10;16.23;;;14.73;;
1336;SDS011;662;48.814;9.318;2022-08-19T02:17:37;18.30;;;16.47;;
1336;SDS011;662;48.814;9.318;2022-08-19T02:20:03;18.27;;;16.57;;
1336;SDS011;662;48.814;9.318;2022-08-19T02:22:31;17.47;;;15.87;;
1336;SDS011;662;48.814;9.318;2022-08-19T02:24:57;17.07;;;15.30;;
1336;SDS011;662;48.814;9.318;2022-08-19T02:27:22;16.37;;;14.80;;
1336;SDS011;662;48.814;9.318;2022-08-19T02:29:48;19.67;;;16.40;;
1336;SDS011;662;48.814;9.318;2022-08-19T02:32:16;17.87;;;16.10;;
1336;SDS011;662;48.814;9.318;2022-08-19T02:34:43;18.73;;;16.90;;
1336;SDS011;662;48.814;9.318;2022-08-19T02:37:08;18.60;;;16.80;;
1336;SDS011;662;48.814;9.318;2022-08-19T02:39:54;18.93;;;17.03;;
1336;SDS011;662;48.814;9.318;2022-08-19T02:42:19;27.47;;;16.87;;
1336;SDS011;662;48.814;9.318;2022-08-19T02:44:45;18.23;;;16.40;;
1336;SDS011;662;48.814;9.318;2022-08-19T02:47:11;18.60;;;16.27;;
1336;SDS011;662;48.814;9.318;2022-08-19T02:49:39;19.70;;;17.70;;
1336;SDS011;662;48.814;9.318;2022-08-19T02:52:05;18.20;;;16.50;;
1336;SDS011;662;48.814;9.318;2022-08-19T02:54:30;21.20;;;17.30;;
1336;SDS011;662;48.814;9.318;2022-08-19T02:56:56;19.37;;;17.43;;
1336;SDS011;662;48.814;9.318;2022-08-19T02:59:22;22.03;;;19.87;;
1336;SDS011;662;48.814;9.318;2022-08-19T03:01:47;20.20;;;18.20;;
1336;SDS011;662;48.814;9.318;2022-08-19T03:04:13;21.03;;;18.90;;
1336;SDS011;662;48.814;9.318;2022-08-19T03:06:41;20.33;;;18.30;;
1336;SDS011;662;48.814;9.318;2022-08-19T03:09:09;20.47;;;18.27;;
1336;SDS011;662;48.814;9.318;2022-08-19T03:11:35;20.37;;;18.17;;
1336;SDS011;662;48.814;9.318;2022-08-19T03:14:02;21.07;;;18.83;;
1336;SDS011;662;48.814;9.318;2022-08-19T03:16:30;19.67;;;17.77;;
1336;SDS011;662;48.814;9.318;2022-08-19T03:18:57;20.27;;;18.27;;
1336;SDS011;662;48.814;9.318;2022-08-19T03:21:27;21.40;;;19.13;;
1336;SDS011;662;48.814;9.318;2022-08-19T03:23:56;21.27;;;18.97;;
1336;SDS011;662;48.814;9.318;2022-08-19T03:26:23;21.17;;;19.00;;
1336;SDS011;662;48.814;9.318;2022-08-19T03:28:49;20.47;;;18.47;;
1336;SDS011;662;48.814;9.318;2022-08-19T03:31:16;22.33;;;20.10;;
1336;SDS011;662;48.814;9.318;2022-08-19T03:33:44;23.07;;;18.33;;
1336;SDS011;662;48.814;9.318;2022-08-19T03:36:14;22.37;;;20.10;;
1336;SDS011;662;48.814;9.318;2022-08-19T03:38:43;22.60;;;20.30;;
1336;SDS011;662;48.814;9.318;2022-08-19T03:41:15;21.97;;;19.67;;
1336;SDS011;662;48.814;9.318;2022-08-19T03:43:47;23.87;;;21.47;;
1336;SDS011;662;48.814;9.318;2022-08-19T03:46:17;20.70;;;18.57;;
1336;SDS011;662;48.814;9.318;2022-08-19T03:48:48;23.83;;;21.43;;
1336;SDS011;662;48.814;9.318;2022-08-19T03:51:20;23.60;;;20.33;;
1336;SDS011;662;48.814;9.318;2022-08-19T03:53:48;25.47;;;20.60;;
1336;SDS011;662;48.814;9.318;2022-08-19T03:56:14;23.10;;;20.60;;
1336;SDS011;662;48.814;9.318;2022-08-19T03:58:40;22.77;;;20.57;;
1336;SDS011;662;48.814;9.318;2022-08-19T04:01:08;23.13;;;20.73;;
1336;SDS011;662;48.814;9.318;2022-08-19T04:03:35;22.63;;;20.40;;
1336;SDS011;662;48.814;9.318;2022-08-19T04:06:14;25.70;;;21.57;;
1336;SDS011;662;48.814;9.318;2022-08-19T04:08:46;23.90;;;21.33;;
1336;SDS011;662;48.814;9.318;2022-08-19T04:11:15;24.27;;;21.87;;
1336;SDS011;662;48.814;9.318;2022-08-19T04:13:42;24.03;;;20.20;;
1336;SDS011;662;48.814;9.318;2022-08-19T04:16:10;21.37;;;19.37;;
1336;SDS011;662;48.814;9.318;2022-08-19T04:18:36;24.80;;;22.20;;
1336;SDS011;662;48.814;9.318;2022-08-19T04:21:03;24.60;;;21.23;;
1336;SDS011;662;48.814;9.318;2022-08-19T04:23:30;23.93;;;21.50;;
1336;SDS011;662;48.814;9.318;2022-08-19T04:25:56;23.07;;;20.67;;
1336;SDS011;662;48.814;9.318;2022-08-19T04:28:22;23.27;;;20.97;;
1336;SDS011;662;48.814;9.318;2022-08-19T04:30:49;24.13;;;21.63;;
1336;SDS011;662;48.814;9.318;2022-08-19T04:33:17;24.40;;;21.90;;
1336;SDS011;662;48.814;9.318;2022-08-19T04:35:47;23.70;;;21.40;;
1336;SDS011;662;48.814;9.318;2022-08-19T04:38:15;25.50;;;23.00;;
1336;SDS011;662;48.814;9.318;2022-08-19T04:40:43;22.23;;;20.00;;
1336;SDS011;662;48.814;9.318;2022-08-19T04:43:28;25.17;;;22.40;;
1336;SDS011;662;48.814;9.318;2022-08-19T04:45:55;24.77;;;22.27;;
1336;SDS011;662;48.814;9.318;2022-08-19T04:48:21;24.80;;;22.40;;
1336;SDS011;662;48.814;9.318;2022-08-19T04:50:53;24.63;;;21.93;;
1336;SDS011;662;48.814;9.318;2022-08-19T04:53:26;23.80;;;21.40;;
1336;SDS011;662;48.814;9.318;2022-08-19T04:55:53;25.40;;;22.80;;
1336;SDS011;662;48.814;9.318;2022-08-19T04:58:19;26.17;;;22.93;;
1336;SDS011;662;48.814;9.318;2022-08-19T05:00:45;23.83;;;21.43;;
1336;SDS011;662;48.814;9.318;2022-08-19T05:03:11;24.77;;;22.27;;
1336;SDS011;662;48.814;9.318;2022-08-19T05:05:38;25.37;;;22.90;;
1336;SDS011;662;48.814;9.318;2022-08-19T05:08:05;26.73;;;23.53;;
1336;SDS011;662;48.814;9.318;2022-08-19T05:10:36;24.37;;;21.80;;
1336;SDS011;662;48.814;9.318;2022-08-19T05:13:03;25.63;;;22.80;;
1336;SDS011;662;48.814;9.318;2022-08-19T05:15:29;24.63;;;22.03;;
1336;SDS011;662;48.814;9.318;2022-08-19T05:17:55;25.50;;;22.90;;
1336;SDS011;662;48.814;9.318;2022-08-19T05:20:40;26.07;;;23.50;;
1336;SDS011;662;48.814;9.318;2022-08-19T05:23:24;25.03;;;22.50;;
1336;SDS011;662;48.814;9.318;2022-08-19T05:25:50;26.80;;;24.10;;
1336;SDS011;662;48.814;9.318;2022-08-19T05:28:16;26.03;;;23.33;;
1336;SDS011;662;48.814;9.318;2022-08-19T05:30:43;25.73;;;23.03;;
1336;SDS011;662;48.814;9.318;2022-08-19T05:33:10;23.70;;;21.33;;
1336;SDS011;662;48.814;9.318;2022-08-19T05:35:37;26.47;;;23.93;;
1336;SDS011;662;48.814;9.318;2022-08-19T05:38:04;26.73;;;23.97;;
1336;SDS011;662;48.814;9.318;2022-08-19T05:40:33;25.83;;;23.13;;
1336;SDS011;662;48.814;9.318;2022-08-19T05:43:01;25.00;;;22.30;;
1336;SDS011;662;48.814;9.318;2022-08-19T05:45:28;25.40;;;22.90;;
1336;SDS011;662;48.814;9.318;2022-08-19T05:47:54;27.03;;;24.00;;
1336;SDS011;662;48.814;9.318;2022-08-19T05:50:20;26.10;;;21.57;;
1336;SDS011;662;48.814;9.318;2022-08-19T05:52:45;25.77;;;23.17;;
1336;SDS011;662;48.814;9.318;2022-08-19T05:55:11;25.30;;;22.60;;
1336;SDS011;662;48.814;9.318;2022-08-19T05:57:37;25.30;;;22.77;;
1336;SDS011;662;48.814;9.318;2022-08-19T06:00:04;27.07;;;24.27;;
1336;SDS011;662;48.814;9.318;2022-08-19T06:02:34;24.93;;;22.30;;
1336;SDS011;662;48.814;9.318;2022-08-19T06:05:00;26.03;;;23.27;;
1336;SDS011;662;48.814;9.318;2022-08-19T06:07:28;25.30;;;22.80;;
1336;SDS011;662;48.814;9.318;2022-08-19T06:09:54;25.20;;;22.80;;
1336;SDS011;662;48.814;9.318;2022-08-19T06:12:20;25.07;;;22.53;;
1336;SDS011;662;48.814;9.318;2022-08-19T06:14:51;25.07;;;22.57;;
1336;SDS011;662;48.814;9.318;2022-08-19T06:17:17;25.00;;;22.60;;
1336;SDS011;662;48.814;9.318;2022-08-19T06:19:43;26.40;;;23.80;;
1336;SDS011;662;48.814;9.318;2022-08-19T06:22:09;26.27;;;23.80;;
1336;SDS011;662;48.814;9.318;2022-08-19T06:24:37;26.00;;;23.33;;
1336;SDS011;662;48.814;9.318;2022-08-19T06:27:03;26.07;;;23.43;;
1336;SDS011;662;48.814;9.318;2022-08-19T06:29:30;30.50;;;25.77;;
1336;SDS011;662;48.814;9.318;2022-08-19T06:31:58;27.77;;;24.90;;
1336;SDS011;662;48.814;9.318;2022-08-19T06:34:25;25.73;;;23.03;;
1336;SDS011;662;48.814;9.318;2022-08-19T06:36:53;26.70;;;24.20;;
1336;SDS011;662;48.814;9.318;2022-08-19T06:39:21;27.43;;;23.50;;
1336;SDS011;662;48.814;9.318;2022-08-19T06:41:49;25.60;;;23.10;;
1336;SDS011;662;48.814;9.318;2022-08-19T06:44:18;26.47;;;23.90;;
1336;SDS011;662;48.814;9.318;2022-08-19T06:46:45;27.43;;;24.70;;
1336;SDS011;662;48.814;9.318;2022-08-19T06:49:11;28.67;;;25.63;;
1336;SDS011;662;48.814;9.318;2022-08-19T06:51:42;27.90;;;25.00;;
1336;SDS011;662;48.814;9.318;2022-08-19T06:54:08;28.20;;;25.40;;
1336;SDS011;662;48.814;9.318;2022-08-19T06:56:35;25.73;;;23.03;;
1336;SDS011;662;48.814;9.318;2022-08-19T06:59:09;27.37;;;24.67;;
1336;SDS011;662;48.814;9.318;2022-08-19T07:01:43;26.40;;;23.63;;
1336;SDS011;662;48.814;9.318;2022-08-19T07:04:13;26.83;;;24.27;;
1336;SDS011;662;48.814;9.318;2022-08-19T07:06:40;23.93;;;21.53;;
1336;SDS011;662;48.814;9.318;2022-08-19T07:09:08;27.60;;;24.80;;
1336;SDS011;662;48.814;9.318;2022-08-19T07:11:34;25.40;;;22.80;;
1336;SDS011;662;48.814;9.318;2022-08-19T07:14:00;27.33;;;24.70;;
1336;SDS011;662;48.814;9.318;2022-08-19T07:16:26;27.80;;;25.20;;
1336;SDS011;662;48.814;9.318;2022-08-19T07:18:52;25.80;;;23.10;;
1336;SDS011;662;48.814;9.318;2022-08-19T07:21:20;27.63;;;24.73;;
1336;SDS011;662;48.814;9.318;2022-08-19T07:23:48;27.37;;;24.47;;
1336;SDS011;662;48.814;9.318;2022-08-19T07:26:22;27.57;;;24.87;;
1336;SDS011;662;48.814;9.318;2022-08-19T07:28:49;26.80;;;24.20;;
1336;SDS011;662;48.814;9.318;2022-08-19T07:31:17;26.37;;;23.77;;
1336;SDS011;662;48.814;9.318;2022-08-19T07:33:45;28.33;;;25.43;;
1336;SDS011;662;48.814;9.318;2022-08-19T07:36:13;27.27;;;24.33;;
1336;SDS011;662;48.814;9.318;2022-08-19T07:38:42;28.07;;;25.20;;
1336;SDS011;662;48.814;9.318;2022-08-19T07:41:10;26.40;;;23.80;;
1336;SDS011;662;48.814;9.318;2022-08-19T07:43:38;29.13;;;26.07;;
1336;SDS011;662;48.814;9.318;2022-08-19T07:46:05;26.60;;;24.00;;
1336;SDS011;662;48.814;9.318;2022-08-19T07:48:31;24.20;;;21.70;;
1336;SDS011;662;48.814;9.318;2022-08-19T07:50:59;24.67;;;22.37;;
1336;SDS011;662;48.814;9.318;2022-08-19T07:53:28;26.20;;;23.70;;
1336;SDS011;662;48.814;9.318;2022-08-19T07:55:55;24.67;;;22.30;;
1336;SDS011;662;48.814;9.318;2022-08-19T07:58:23;27.07;;;24.43;;
1336;SDS011;662;48.814;9.318;2022-08-19T08:00:49;25.80;;;23.20;;
1336;SDS011;662;48.814;9.318;2022-08-19T08:03:16;26.93;;;22.23;;
1336;SDS011;662;48.814;9.318;2022-08-19T08:05:44;23.30;;;20.90;;
1336;SDS011;662;48.814;9.318;2022-08-19T08:08:29;26.90;;;22.67;;
1336;SDS011;662;48.814;9.318;2022-08-19T08:11:10;24.83;;;22.20;;
1336;SDS011;662;48.814;9.318;2022-08-19T08:13:36;24.90;;;22.60;;
1336;SDS011;662;48.814;9.318;2022-08-19T08:16:02;27.00;;;22.93;;
1336;SDS011;662;48.814;9.318;2022-08-19T08:18:28;24.87;;;22.53;;
1336;SDS011;662;48.814;9.318;2022-08-19T08:20:54;25.20;;;22.47;;
1336;SDS011;662;48.814;9.318;2022-08-19T08:23:20;23.87;;;21.37;;
1336;SDS011;662;48.814;9.318;2022-08-19T08:25:53;25.60;;;21.87;;
1336;SDS011;662;48.814;9.318;2022-08-19T08:28:23;23.73;;;21.53;;
1336;SDS011;662;48.814;9.318;2022-08-19T08:30:50;22.37;;;20.17;;
1336;SDS011;662;48.814;9.318;2022-08-19T08:33:19;24.20;;;22.00;;
1336;SDS011;662;48.814;9.318;2022-08-19T08:35:47;23.83;;;21.47;;
1336;SDS011;662;48.814;9.318;2022-08-19T08:38:13;22.60;;;20.43;;
1336;SDS011;662;48.814;9.318;2022-08-19T08:46:08;22.20;;;20.03;;
1336;SDS011;662;48.814;9.318;2022-08-19T08:48:50;21.00;;;19.00;;
1336;SDS011;662;48.814;9.318;2022-08-19T08:51:25;20.87;;;18.63;;
1336;SDS011;662;48.814;9.318;2022-08-19T08:54:12;21.27;;;19.17;;
1336;SDS011;662;48.814;9.318;2022-08-19T08:56:41;21.37;;;19.33;;
1336;SDS011;662;48.814;9.318;2022-08-19T08:59:30;21.63;;;19.63;;
1336;SDS011;662;48.814;9.318;2022-08-19T09:01:58;22.50;;;20.30;;
1336;SDS011;662;48.814;9.318;2022-08-19T09:04:24;22.57;;;20.20;;
1336;SDS011;662;48.814;9.318;2022-08-19T09:09:52;22.83;;;20.67;;
1336;SDS011;662;48.814;9.318;2022-08-19T09:15:09;24.40;;;20.40;;
1336;SDS011;662;48.814;9.318;2022-08-19T09:17:38;22.43;;;20.17;;
1336;SDS011;662;48.814;9.318;2022-08-19T09:20:13;23.90;;;21.50;;
1336;SDS011;662;48.814;9.318;2022-08-19T09:22:50;24.97;;;22.13;;
1336;SDS011;662;48.814;9.318;2022-08-19T09:25:17;24.37;;;21.03;;
1336;SDS011;662;48.814;9.318;2022-08-19T09:27:46;24.20;;;21.90;;
1336;SDS011;662;48.814;9.318;2022-08-19T09:30:15;22.90;;;20.60;;
1336;SDS011;662;48.814;9.318;2022-08-19T09:32:43;20.97;;;18.83;;
1336;SDS011;662;48.814;9.318;2022-08-19T09:35:10;22.57;;;20.17;;
1336;SDS011;662;48.814;9.318;2022-08-19T09:37:37;21.13;;;19.07;;
1336;SDS011;662;48.814;9.318;2022-08-19T09:40:03;23.70;;;21.60;;
1336;SDS011;662;48.814;9.318;2022-08-19T09:42:29;25.53;;;22.80;;
1336;SDS011;662;48.814;9.318;2022-08-19T09:44:55;23.70;;;21.23;;
1336;SDS011;662;48.814;9.318;2022-08-19T09:47:21;25.17;;;22.43;;
1336;SDS011;662;48.814;9.318;2022-08-19T09:49:46;24.43;;;21.93;;
1336;SDS011;662;48.814;9.318;2022-08-19T09:52:13;25.87;;;22.57;;
1336;SDS011;662;48.814;9.318;2022-08-19T09:54:40;24.40;;;22.07;;
1336;SDS011;662;48.814;9.318;2022-08-19T09:57:06;24.93;;;22.33;;
1336;SDS011;662;48.814;9.318;2022-08-19T09:59:32;25.73;;;23.00;;
1336;SDS011;662;48.814;9.318;2022-08-19T10:01:58;25.63;;;22.93;;
1336;SDS011;662;48.814;9.318;2022-08-19T10:04:23;25.30;;;22.77;;
1336;SDS011;662;48.814;9.318;2022-08-19T10:07:09;25.67;;;22.30;;
1336;SDS011;662;48.814;9.318;2022-08-19T10:09:35;27.30;;;24.40;;
1336;SDS011;662;48.814;9.318;2022-08-19T10:12:02;25.57;;;23.10;;
1336;SDS011;662;48.814;9.318;2022-08-19T10:14:29;27.70;;;23.30;;
1336;SDS011;662;48.814;9.318;2022-08-19T10:16:56;27.30;;;24.20;;
1336;SDS011;662;48.814;9.318;2022-08-19T10:19:22;25.33;;;22.93;;
1336;SDS011;662;48.814;9.318;2022-08-19T10:21:47;27.07;;;24.37;;
1336;SDS011;662;48.814;9.318;2022-08-19T10:24:13;26.33;;;23.77;;
1336;SDS011;662;48.814;9.318;2022-08-19T10:26:39;26.57;;;23.80;;
1336;SDS011;662;48.814;9.318;2022-08-19T10:29:12;27.70;;;25.10;;
1336;SDS011;662;48.814;9.318;2022-08-19T10:31:41;28.73;;;25.90;;
1336;SDS011;662;48.814;9.318;2022-08-19T10:34:07;29.27;;;26.37;;
1336;SDS011;662;48.814;9.318;2022-08-19T10:36:34;28.87;;;25.77;;
1336;SDS011;662;48.814;9.318;2022-08-19T10:39:04;28.13;;;24.73;;
1336;SDS011;662;48.814;9.318;2022-08-19T10:41:33;28.00;;;25.10;;
1336;SDS011;662;48.814;9.318;2022-08-19T10:44:02;26.23;;;23.77;;
1336;SDS011;662;48.814;9.318;2022-08-19T10:46:30;31.03;;;27.73;;
1336;SDS011;662;48.814;9.318;2022-08-19T10:48:57;30.60;;;27.50;;
1336;SDS011;662;48.814;9.318;2022-08-19T10:51:27;30.13;;;25.97;;
1336;SDS011;662;48.814;9.318;2022-08-19T10:54:11;28.90;;;26.10;;
1336;SDS011;662;48.814;9.318;2022-08-19T10:56:37;27.20;;;24.40;;
1336;SDS011;662;48.814;9.318;2022-08-19T10:59:22;32.73;;;29.20;;
1336;SDS011;662;48.814;9.318;2022-08-19T11:01:53;30.83;;;24.60;;
1336;SDS011;662;48.814;9.318;2022-08-19T11:04:24;27.80;;;25.07;;
1336;SDS011;662;48.814;9.318;2022-08-19T11:06:50;30.90;;;27.80;;
1336;SDS011;662;48.814;9.318;2022-08-19T11:09:17;29.10;;;26.00;;
1336;SDS011;662;48.814;9.318;2022-08-19T11:11:46;29.47;;;26.30;;
1336;SDS011;662;48.814;9.318;2022-08-19T11:14:13;29.30;;;26.33;;
1336;SDS011;662;48.814;9.318;2022-08-19T11:16:41;27.73;;;25.00;;
1336;SDS011;662;48.814;9.318;2022-08-19T11:19:07;30.97;;;26.37;;
1336;SDS011;662;48.814;9.318;2022-08-19T11:21:35;27.50;;;24.70;;
1336;SDS011;662;48.814;9.318;2022-08-19T11:24:09;30.13;;;27.00;;
1336;SDS011;662;48.814;9.318;2022-08-19T11:26:37;29.00;;;26.03;;
1336;SDS011;662;48.814;9.318;2022-08-19T11:29:05;27.93;;;25.17;;
1336;SDS011;662;48.814;9.318;2022-08-19T11:31:32;27.27;;;24.57;;
1336;SDS011;662;48.814;9.318;2022-08-19T11:34:01;27.77;;;24.97;;
1336;SDS011;662;48.814;9.318;2022-08-19T11:36:29;28.30;;;25.40;;
1336;SDS011;662;48.814;9.318;2022-08-19T11:38:57;26.17;;;23.47;;
1336;SDS011;662;48.814;9.318;2022-08-19T11:41:23;27.00;;;24.37;;
1336;SDS011;662;48.814;9.318;2022-08-19T11:43:49;24.00;;;21.57;;
1336;SDS011;662;48.814;9.318;2022-08-19T11:46:17;27.67;;;25.07;;
1336;SDS011;662;48.814;9.318;2022-08-19T11:48:43;26.70;;;23.87;;
1336;SDS011;662;48.814;9.318;2022-08-19T11:51:10;24.30;;;22.03;;
1336;SDS011;662;48.814;9.318;2022-08-19T11:53:38;24.77;;;21.90;;
1336;SDS011;662;48.814;9.318;2022-08-19T11:56:05;21.50;;;19.60;;
1336;SDS011;662;48.814;9.318;2022-08-19T11:58:32;22.63;;;20.40;;
1336;SDS011;662;48.814;9.318;2022-08-19T12:00:57;25.33;;;21.90;;
1336;SDS011;662;48.814;9.318;2022-08-19T12:03:23;26.17;;;23.37;;
1336;SDS011;662;48.814;9.318;2022-08-19T12:05:49;29.87;;;23.80;;
1336;SDS011;662;48.814;9.318;2022-08-19T12:08:15;29.23;;;24.10;;
1336;SDS011;662;48.814;9.318;2022-08-19T12:10:42;29.33;;;26.03;;
1336;SDS011;662;48.814;9.318;2022-08-19T12:13:09;27.20;;;24.60;;
1336;SDS011;662;48.814;9.318;2022-08-19T12:15:38;31.10;;;27.40;;
1336;SDS011;662;48.814;9.318;2022-08-19T12:18:06;27.97;;;24.97;;
1336;SDS011;662;48.814;9.318;2022-08-19T12:20:36;31.90;;;25.23;;
1336;SDS011;662;48.814;9.318;2022-08-19T12:23:04;28.57;;;24.20;;
1336;SDS011;662;48.814;9.318;2022-08-19T12:25:30;26.67;;;23.97;;
1336;SDS011;662;48.814;9.318;2022-08-19T12:27:56;25.77;;;23.07;;
1336;SDS011;662;48.814;9.318;2022-08-19T12:30:22;26.03;;;23.63;;
1336;SDS011;662;48.814;9.318;2022-08-19T12:32:48;24.80;;;21.90;;
1336;SDS011;662;48.814;9.318;2022-08-19T12:35:16;24.57;;;22.20;;
1336;SDS011;662;48.814;9.318;2022-08-19T12:37:42;28.83;;;25.90;;
1336;SDS011;662;48.814;9.318;2022-08-19T12:40:10;26.67;;;23.87;;
1336;SDS011;662;48.814;9.318;2022-08-19T12:42:37;22.00;;;19.90;;
1336;SDS011;662;48.814;9.318;2022-08-19T12:45:07;26.47;;;23.80;;
1336;SDS011;662;48.814;9.318;2022-08-19T12:47:34;24.13;;;21.93;;
1336;SDS011;662;48.814;9.318;2022-08-19T12:50:00;23.40;;;21.10;;
1336;SDS011;662;48.814;9.318;2022-08-19T12:52:26;27.20;;;24.50;;
1336;SDS011;662;48.814;9.318;2022-08-19T12:54:53;27.77;;;25.17;;
1336;SDS011;662;48.814;9.318;2022-08-19T12:57:21;26.37;;;23.63;;
1336;SDS011;662;48.814;9.318;2022-08-19T12:59:48;26.90;;;24.20;;
1336;SDS011;662;48.814;9.318;2022-08-19T13:02:18;24.57;;;22.30;;
1336;SDS011;662;48.814;9.318;2022-08-19T13:04:44;26.87;;;24.43;;
1336;SDS011;662;48.814;9.318;2022-08-19T13:07:10;27.23;;;24.70;;
1336;SDS011;662;48.814;9.318;2022-08-19T13:09:36;27.33;;;24.37;;
1336;SDS011;662;48.814;9.318;2022-08-19T13:12:02;23.37;;;21.20;;
1336;SDS011;662;48.814;9.318;2022-08-19T13:14:32;27.47;;;24.73;;
1336;SDS011;662;48.814;9.318;2022-08-19T13:16:59;26.47;;;23.97;;
1336;SDS011;662;48.814;9.318;2022-08-19T13:19:25;28.37;;;25.67;;
1336;SDS011;662;48.814;9.318;2022-08-19T13:21:51;29.00;;;26.40;;
1336;SDS011;662;48.814;9.318;2022-08-19T13:24:18;25.27;;;22.70;;
1336;SDS011;662;48.814;9.318;2022-08-19T13:26:44;24.83;;;22.13;;
1336;SDS011;662;48.814;9.318;2022-08-19T13:29:10;28.23;;;25.33;;
1336;SDS011;662;48.814;9.318;2022-08-19T13:31:54;27.47;;;24.80;;
1336;SDS011;662;48.814;9.318;2022-08-19T13:34:38;31.47;;;28.57;;
1336;SDS011;662;48.814;9.318;2022-08-19T13:37:04;29.37;;;26.60;;
1336;SDS011;662;48.814;9.318;2022-08-19T13:39:30;28.60;;;25.80;;
1336;SDS011;662;48.814;9.318;2022-08-19T13:41:58;28.27;;;25.47;;
1336;SDS011;662;48.814;9.318;2022-08-19T13:44:25;29.50;;;26.60;;
1336;SDS011;662;48.814;9.318;2022-08-19T13:46:54;29.63;;;26.50;;
1336;SDS011;662;48.814;9.318;2022-08-19T13:49:27;29.10;;;26.17;;
1336;SDS011;662;48.814;9.318;2022-08-19T13:51:56;29.90;;;26.80;;
1336;SDS011;662;48.814;9.318;2022-08-19T13:54:21;28.20;;;25.40;;
1336;SDS011;662;48.814;9.318;2022-08-19T13:56:47;26.13;;;23.60;;
1336;SDS011;662;48.814;9.318;2022-08-19T13:59:13;27.87;;;25.07;;
1336;SDS011;662;48.814;9.318;2022-08-19T14:01:39;30.50;;;27.40;;
1336;SDS011;662;48.814;9.318;2022-08-19T14:04:06;29.83;;;26.83;;
1336;SDS011;662;48.814;9.318;2022-08-19T14:06:32;29.60;;;26.50;;
1336;SDS011;662;48.814;9.318;2022-08-19T14:08:58;30.10;;;27.20;;
1336;SDS011;662;48.814;9.318;2022-08-19T14:11:24;29.97;;;26.70;;
1336;SDS011;662;48.814;9.318;2022-08-19T14:13:51;27.97;;;25.37;;
1336;SDS011;662;48.814;9.318;2022-08-19T14:16:16;28.90;;;26.10;;
1336;SDS011;662;48.814;9.318;2022-08-19T14:18:42;29.23;;;26.37;;
1336;SDS011;662;48.814;9.318;2022-08-19T14:21:14;28.87;;;26.17;;
1336;SDS011;662;48.814;9.318;2022-08-19T14:23:42;27.70;;;25.10;;
1336;SDS011;662;48.814;9.318;2022-08-19T14:26:09;26.13;;;23.70;;
1336;SDS011;662;48.814;9.318;2022-08-19T14:28:38;27.07;;;24.17;;
1336;SDS011;662;48.814;9.318;2022-08-19T14:31:06;30.20;;;27.17;;
1336;SDS011;662;48.814;9.318;2022-08-19T14:33:33;28.40;;;25.60;;
1336;SDS011;662;48.814;9.318;2022-08-19T14:35:58;28.57;;;25.77;;
1336;SDS011;662;48.814;9.318;2022-08-19T14:38:25;31.20;;;28.27;;
1336;SDS011;662;48.814;9.318;2022-08-19T14:40:51;30.50;;;27.30;;
1336;SDS011;662;48.814;9.318;2022-08-19T14:43:17;29.77;;;26.87;;
1336;SDS011;662;48.814;9.318;2022-08-19T14:45:43;29.30;;;26.60;;
1336;SDS011;662;48.814;9.318;2022-08-19T14:48:09;29.63;;;26.77;;
1336;SDS011;662;48.814;9.318;2022-08-19T14:50:36;32.60;;;29.40;;
1336;SDS011;662;48.814;9.318;2022-08-19T14:53:03;31.27;;;27.80;;
1336;SDS011;662;48.814;9.318;2022-08-19T14:55:32;29.60;;;26.60;;
1336;SDS011;662;48.814;9.318;2022-08-19T14:57:58;31.90;;;28.57;;
1336;SDS011;662;48.814;9.318;2022-08-19T15:00:27;32.23;;;29.03;;
1336;SDS011;662;48.814;9.318;2022-08-19T15:02:53;32.77;;;29.47;;
1336;SDS011;662;48.814;9.318;2022-08-19T15:05:19;32.37;;;29.07;;
1336;SDS011;662;48.814;9.318;2022-08-19T15:07:45;31.37;;;28.30;;
1336;SDS011;662;48.814;9.318;2022-08-19T15:10:11;33.30;;;29.80;;
1336;SDS011;662;48.814;9.318;2022-08-19T15:12:38;33.20;;;29.90;;
1336;SDS011;662;48.814;9.318;2022-08-19T15:15:05;35.10;;;31.40;;
1336;SDS011;662;48.814;9.318;2022-08-19T15:17:33;35.00;;;31.50;;